Historyczne dane pomiarowe

Dodano dane terminowe – wersja testowa.

Dane z okresu 1951-2019

Wersja bazy: 1.34 [2019-03-16, lista zmian], aktualizacja planowana na 2019-04-15

Dane meteo z obszaru Polski uzyskane na podstawie danych udostępnionych przez Instytut Meteorologii i Gospodarki Wodnej – Państwowy Instytut Badawczy.

 

Wybierz Datę:    

       

TemperaturaWilgotnośćWiatrCiśnienieOpadyŚniegCzas trwania zjawisk
 Stacja t tx tn tng RH VA  wxwx mslp ppp RRR   cm mm wxwxwxwxwxwxwx
1994-08-14 14.3 17.1 11.6--- 4.0 6.3---- 1.3------------
1994-08-13 17.9 22.5 14.4--- 8.0 4.7---- 15.1------------
1994-08-12 19.3 24.2 16.7--- 5.7 2.3---- 0.0------------
1994-08-11 18.9 24.4 12.1--- 5.3 2.7---- 0.7------------
1994-08-10 20.0 25.8 14.6--- 2.7 1.0---- 0.0------------
1994-08-09 17.6 22.3 14.3--- 6.7 1.7---- 24.5------------
1994-08-08 20.9 26.1 18.5--- 6.7 2.7---- 0.4------------
1994-08-07 24.3 28.7 16.9--- 3.3 2.7---- 0.0------------
1994-08-06 26.0 34.0 16.9--- 1.3 4.0---- 0.5------------
1994-08-05 25.9 32.5 17.7--- 1.0 2.0---- 0.0------------
1994-08-04 24.0 29.3 17.5--- 2.0 2.3---- 0.0------------
1994-08-03 25.1 31.0 20.8--- 4.0 2.3---- 0.0------------
1994-08-02 28.5 34.5 22.0--- 2.3 1.7---- 0.0------------
1994-08-01 27.9 37.3 17.7--- 3.0 2.3---- 0.0------------
1994-07-31 27.8 35.5 18.4--- 1.0 1.7---- 0.0------------
1994-07-30 27.8 36.2 16.9--- 0.3 1.7---- 0.0------------
1994-07-29 26.6 35.8 15.1--- 0.0 1.7---- 0.0------------
1994-07-28 26.4 34.0 15.3--- 0.3 1.0---- 0.0------------
1994-07-27 25.5 34.0 13.8--- 0.0 1.0---- 0.0------------
1994-07-26 25.8 33.4 13.9--- 0.3 0.7---- 0.0------------
1994-07-25 24.7 32.3 13.9--- 1.3 1.3---- 0.0------------
1994-07-24 23.5 30.5 12.1--- 1.3 2.0---- 0.0------------
1994-07-23 22.8 29.4 11.9--- 1.0 1.0---- 0.0------------
1994-07-22 21.5 27.2 14.1--- 0.0 1.7---- 0.0------------
1994-07-21 21.4 28.4 8.9--- 0.0 1.0---- 0.0------------
1994-07-20 19.1 24.5 10.9--- 0.3 2.3---- 0.0------------
1994-07-19 19.2 24.0 12.6--- 1.7 3.3---- 0.0------------
1994-07-18 20.6 25.5 16.0--- 6.0 3.7---- 0.0------------
1994-07-17 22.7 27.5 17.3--- 3.7 1.3---- 0.0------------
1994-07-16 23.1 30.8 15.1--- 1.7 1.3---- 0.0------------
1994-07-15 23.8 29.8 11.9--- 1.7 1.7---- 0.0------------
1994-07-14 24.1 31.5 17.5--- 2.3 1.0---- 0.0------------
1994-07-13 23.2 30.2 14.4--- 0.0 1.3---- 0.0------------
1994-07-12 23.6 28.5 13.9--- 0.7 4.0---- 0.0------------
1994-07-11 21.1 27.7 14.1--- 2.3 2.3---- 0.0------------
1994-07-10 18.6 25.8 13.1--- 3.3 3.0---- 0.0------------
1994-07-09 13.7 14.9 12.4--- 8.0 2.3---- 7.8------------
1994-07-08 16.1 24.3 14.1--- 6.7 3.7---- 9.6------------
1994-07-07 20.3 27.0 11.6--- 0.7 2.0---- 9.1------------
1994-07-06 20.2 26.5 11.9--- 2.0 1.7---- 0.0------------
1994-07-05 20.6 25.7 13.9--- 2.0 2.3---- 0.0------------
1994-07-04 20.2 26.7 10.0--- 0.3 1.3---- 0.0------------
1994-07-03 19.6 26.0 9.3--- 0.0 2.0---- 0.0------------
1994-07-02 18.5 24.0 10.9--- 0.0 2.0---- 0.0------------
1994-07-01 18.3 23.5 11.1--- 2.3 2.0---- 0.0------------
1994-06-30 21.6 27.2 15.4 17.6 71.0- 6.3 3.0---- 0.0------------
1994-06-29 24.9 31.3 15.4 13.4 67.8- 0.0 2.3---- 0.0------------
1994-06-28 23.7 29.0 17.5 13.7 60.0- 0.0 1.3---- 0.0------------
1994-06-27 24.7 30.4 16.3 14.2 62.5- 1.3 2.0---- 0.0------------
1994-06-26 22.4 30.5 8.8 5.4 59.8- 0.3 3.0---- 0.0------------
1994-06-25 16.7 22.9 5.5 2.6 61.5- 0.0 1.7---- 0.0------------
1994-06-24 14.5 19.1 8.6 7.2 57.3- 2.7 3.3---- 0.0------------
1994-06-23 16.6 22.7 13.6 13.4 48.3- 2.0 6.0---- 0.0------------
1994-06-22 18.3 25.2 10.2 10.8 66.3- 5.0 5.0---- 0.0------------
1994-06-21 15.7 20.7 7.6 4.7 59.5- 1.7 2.3---- 0.0------------
1994-06-20 16.7 20.2 14.4 14.5 60.8- 3.7 4.0---- 0.0------------
1994-06-19 16.6 20.9 11.9 11.2 74.8- 7.0 4.3---- 0.3------------
1994-06-18 13.2 18.5 6.4 4.1 63.8- 5.3 3.7---- 3.2------------
1994-06-17 11.5 14.7 7.2 8.2 68.8- 5.3 5.0---- 2.1------------
1994-06-16 12.4 16.9 9.1 4.9 66.0- 7.0 4.7---- 2.3------------
304.2 ms

 

Źródłem pochodzenia danych jest Instytut Meteorologii i Gospodarki Wodnej – Państwowy Instytut Badawczy. Dane Instytutu Meteorologii i Gospodarki Wodnej – Państwowego Instytutu Badawczego zostały przetworzone.

Dane źródłowe można odnaleźć na stronie https://dane.imgw.pl